This is the latest recevied weather packets stored in our database for station/object DF9PM-13. If no packets are shown the sender has not sent any weather packets the latest 10 day(s).
| Time | Temp. | Humidity | Pressure | Rain* | Wind** | Luminosity | Snow |
|---|---|---|---|---|---|---|---|
| 1777276990 | 16.67° C | 39% | 1023.2 hPa | - | - | - | - |
| 1777276690 | 17.78° C | 37% | 1023.2 hPa | - | - | - | - |
| 1777276390 | 15.56° C | 40% | 1023.2 hPa | - | - | - | - |
| 1777276090 | 17.78° C | 38% | 1023.1 hPa | - | - | - | - |
| 1777275790 | 15.56° C | 40% | 1023.3 hPa | - | - | - | - |
| 1777275490 | 15.56° C | 40% | 1023.2 hPa | - | - | - | - |
| 1777275190 | 15° C | 42% | 1023.3 hPa | - | - | - | - |
| 1777274890 | 13.89° C | 43% | 1023.3 hPa | - | - | - | - |
| 1777274590 | 14.44° C | 44% | 1023.3 hPa | - | - | - | - |
| 1777274290 | 14.44° C | 44% | 1023.3 hPa | - | - | - | - |
| 1777273989 | 13.33° C | 47% | 1023.3 hPa | - | - | - | - |
| 1777273689 | 12.78° C | 49% | 1023.4 hPa | - | - | - | - |
| 1777273389 | 13.89° C | 49% | 1023.3 hPa | - | - | - | - |
| 1777273089 | 14.44° C | 49% | 1023.4 hPa | - | - | - | - |
| 1777272789 | 13.33° C | 52% | 1023.4 hPa | - | - | - | - |
| 1777272489 | 15° C | 51% | 1023.4 hPa | - | - | - | - |
| 1777272189 | 11.67° C | 60% | 1023.5 hPa | - | - | - | - |
| 1777271889 | 11.67° C | 64% | 1023.4 hPa | - | - | - | - |
| 1777271591 | 11.11° C | 69% | 1023.4 hPa | - | - | - | - |
| 1777271289 | 10° C | 76% | 1023.4 hPa | - | - | - | - |
| 1777270989 | 9.44° C | 81% | 1023.3 hPa | - | - | - | - |
| 1777270689 | 8.89° C | 89% | 1023.3 hPa | - | - | - | - |
| 1777270389 | 8.33° C | 91% | 1023.2 hPa | - | - | - | - |
| 1777270089 | 7.78° C | 97% | 1023.3 hPa | - | - | - | - |
| 1777269789 | 7.78° C | 10% | - | - | - | - | - |
* Rain since midnight (hover to see other rain measurements)
** Current wind speed in m/s (hover to see current wind gust speed)